sensor_id;sensor_type;location;lat;lon;timestamp;temperature;humidity
36800;DHT22;22752;51.960;5.886;2023-06-10T00:00:13;22.00;90.50
36800;DHT22;22752;51.960;5.886;2023-06-10T00:02:41;22.00;90.50
36800;DHT22;22752;51.960;5.886;2023-06-10T00:05:07;22.00;90.60
36800;DHT22;22752;51.960;5.886;2023-06-10T00:07:35;22.00;90.60
36800;DHT22;22752;51.960;5.886;2023-06-10T00:10:04;21.90;90.60
36800;DHT22;22752;51.960;5.886;2023-06-10T00:12:32;21.90;90.70
36800;DHT22;22752;51.960;5.886;2023-06-10T00:15:05;21.90;90.70
36800;DHT22;22752;51.960;5.886;2023-06-10T00:17:31;21.80;90.80
36800;DHT22;22752;51.960;5.886;2023-06-10T00:19:58;21.80;90.70
36800;DHT22;22752;51.960;5.886;2023-06-10T00:22:23;21.70;90.80
36800;DHT22;22752;51.960;5.886;2023-06-10T00:24:55;21.70;91.00
36800;DHT22;22752;51.960;5.886;2023-06-10T00:27:22;21.60;90.80
36800;DHT22;22752;51.960;5.886;2023-06-10T00:29:47;21.60;90.70
36800;DHT22;22752;51.960;5.886;2023-06-10T00:32:13;21.60;90.60
36800;DHT22;22752;51.960;5.886;2023-06-10T00:34:38;21.60;90.60
36800;DHT22;22752;51.960;5.886;2023-06-10T00:37:04;21.50;90.50
36800;DHT22;22752;51.960;5.886;2023-06-10T00:39:30;21.50;90.50
36800;DHT22;22752;51.960;5.886;2023-06-10T00:41:56;21.50;90.50
36800;DHT22;22752;51.960;5.886;2023-06-10T00:44:21;21.40;90.50
36800;DHT22;22752;51.960;5.886;2023-06-10T00:46:47;21.40;90.50
36800;DHT22;22752;51.960;5.886;2023-06-10T00:49:14;21.30;90.50
36800;DHT22;22752;51.960;5.886;2023-06-10T00:51:40;21.30;90.40
36800;DHT22;22752;51.960;5.886;2023-06-10T00:54:07;21.30;90.50
36800;DHT22;22752;51.960;5.886;2023-06-10T00:56:33;21.20;90.40
36800;DHT22;22752;51.960;5.886;2023-06-10T00:59:00;21.20;90.50
36800;DHT22;22752;51.960;5.886;2023-06-10T01:01:26;21.10;90.40
36800;DHT22;22752;51.960;5.886;2023-06-10T01:03:52;21.10;90.40
36800;DHT22;22752;51.960;5.886;2023-06-10T01:09:02;21.10;90.30
36800;DHT22;22752;51.960;5.886;2023-06-10T01:11:48;21.00;90.30
36800;DHT22;22752;51.960;5.886;2023-06-10T01:14:16;21.00;90.30
36800;DHT22;22752;51.960;5.886;2023-06-10T01:16:43;21.00;90.20
36800;DHT22;22752;51.960;5.886;2023-06-10T01:19:11;21.00;90.20
36800;DHT22;22752;51.960;5.886;2023-06-10T01:21:38;20.90;90.30
36800;DHT22;22752;51.960;5.886;2023-06-10T01:24:05;20.80;90.30
36800;DHT22;22752;51.960;5.886;2023-06-10T01:26:34;20.80;90.40
36800;DHT22;22752;51.960;5.886;2023-06-10T01:29:07;20.70;90.30
36800;DHT22;22752;51.960;5.886;2023-06-10T01:32:12;20.70;90.30
36800;DHT22;22752;51.960;5.886;2023-06-10T01:34:42;20.70;90.30
36800;DHT22;22752;51.960;5.886;2023-06-10T01:37:12;20.60;90.40
36800;DHT22;22752;51.960;5.886;2023-06-10T01:39:39;20.60;90.40
36800;DHT22;22752;51.960;5.886;2023-06-10T01:42:06;20.50;90.30
36800;DHT22;22752;51.960;5.886;2023-06-10T01:44:32;20.50;90.30
36800;DHT22;22752;51.960;5.886;2023-06-10T01:46:57;20.50;90.30
36800;DHT22;22752;51.960;5.886;2023-06-10T01:49:23;20.50;90.50
36800;DHT22;22752;51.960;5.886;2023-06-10T01:51:49;20.40;90.40
36800;DHT22;22752;51.960;5.886;2023-06-10T01:54:15;20.40;90.40
36800;DHT22;22752;51.960;5.886;2023-06-10T01:56:41;20.40;90.40
36800;DHT22;22752;51.960;5.886;2023-06-10T01:59:07;20.30;90.40
36800;DHT22;22752;51.960;5.886;2023-06-10T02:01:33;20.30;90.40
36800;DHT22;22752;51.960;5.886;2023-06-10T02:03:59;20.20;90.50
36800;DHT22;22752;51.960;5.886;2023-06-10T02:06:25;20.20;90.50
36800;DHT22;22752;51.960;5.886;2023-06-10T02:08:51;20.20;90.50
36800;DHT22;22752;51.960;5.886;2023-06-10T02:11:16;20.20;90.60
36800;DHT22;22752;51.960;5.886;2023-06-10T02:13:42;20.10;90.70
36800;DHT22;22752;51.960;5.886;2023-06-10T02:16:07;20.10;90.70
36800;DHT22;22752;51.960;5.886;2023-06-10T02:18:34;20.10;90.80
36800;DHT22;22752;51.960;5.886;2023-06-10T02:21:00;20.10;90.90
36800;DHT22;22752;51.960;5.886;2023-06-10T02:23:25;20.00;91.00
36800;DHT22;22752;51.960;5.886;2023-06-10T02:25:51;20.00;91.20
36800;DHT22;22752;51.960;5.886;2023-06-10T02:28:17;19.90;91.30
36800;DHT22;22752;51.960;5.886;2023-06-10T02:30:42;19.90;91.40
36800;DHT22;22752;51.960;5.886;2023-06-10T02:33:08;19.90;91.50
36800;DHT22;22752;51.960;5.886;2023-06-10T02:35:38;19.90;91.60
36800;DHT22;22752;51.960;5.886;2023-06-10T02:38:04;19.80;91.70
36800;DHT22;22752;51.960;5.886;2023-06-10T02:40:30;19.80;91.80
36800;DHT22;22752;51.960;5.886;2023-06-10T02:42:56;19.80;91.90
36800;DHT22;22752;51.960;5.886;2023-06-10T02:45:21;19.80;92.00
36800;DHT22;22752;51.960;5.886;2023-06-10T02:47:47;19.70;92.10
36800;DHT22;22752;51.960;5.886;2023-06-10T02:50:12;19.70;92.20
36800;DHT22;22752;51.960;5.886;2023-06-10T02:52:38;19.70;92.30
36800;DHT22;22752;51.960;5.886;2023-06-10T02:55:04;19.70;92.40
36800;DHT22;22752;51.960;5.886;2023-06-10T02:57:30;19.60;92.50
36800;DHT22;22752;51.960;5.886;2023-06-10T02:59:56;19.60;92.70
36800;DHT22;22752;51.960;5.886;2023-06-10T03:02:24;19.60;92.80
36800;DHT22;22752;51.960;5.886;2023-06-10T03:04:56;19.60;92.80
36800;DHT22;22752;51.960;5.886;2023-06-10T03:07:22;19.60;92.90
36800;DHT22;22752;51.960;5.886;2023-06-10T03:09:48;19.50;93.00
36800;DHT22;22752;51.960;5.886;2023-06-10T03:12:14;19.50;93.10
36800;DHT22;22752;51.960;5.886;2023-06-10T03:14:41;19.50;93.10
36800;DHT22;22752;51.960;5.886;2023-06-10T03:17:07;19.50;93.30
36800;DHT22;22752;51.960;5.886;2023-06-10T03:19:34;19.40;93.40
36800;DHT22;22752;51.960;5.886;2023-06-10T03:22:13;19.40;93.50
36800;DHT22;22752;51.960;5.886;2023-06-10T03:24:39;19.40;93.50
36800;DHT22;22752;51.960;5.886;2023-06-10T03:27:12;19.40;93.60
36800;DHT22;22752;51.960;5.886;2023-06-10T03:29:39;19.40;93.70
36800;DHT22;22752;51.960;5.886;2023-06-10T03:32:05;19.30;93.80
36800;DHT22;22752;51.960;5.886;2023-06-10T03:34:31;19.30;93.90
36800;DHT22;22752;51.960;5.886;2023-06-10T03:36:57;19.30;93.90
36800;DHT22;22752;51.960;5.886;2023-06-10T03:39:25;19.30;94.00
36800;DHT22;22752;51.960;5.886;2023-06-10T03:41:51;19.30;94.00
36800;DHT22;22752;51.960;5.886;2023-06-10T03:44:17;19.30;94.10
36800;DHT22;22752;51.960;5.886;2023-06-10T03:46:42;19.20;94.10
36800;DHT22;22752;51.960;5.886;2023-06-10T03:49:08;19.20;94.20
36800;DHT22;22752;51.960;5.886;2023-06-10T03:51:35;19.20;94.50
36800;DHT22;22752;51.960;5.886;2023-06-10T03:54:01;19.20;94.30
36800;DHT22;22752;51.960;5.886;2023-06-10T03:56:26;19.20;94.40
36800;DHT22;22752;51.960;5.886;2023-06-10T03:58:53;19.20;94.40
36800;DHT22;22752;51.960;5.886;2023-06-10T04:01:19;19.20;94.50
36800;DHT22;22752;51.960;5.886;2023-06-10T04:03:46;19.20;94.50
36800;DHT22;22752;51.960;5.886;2023-06-10T04:06:14;19.30;94.80
36800;DHT22;22752;51.960;5.886;2023-06-10T04:08:41;19.30;94.60
36800;DHT22;22752;51.960;5.886;2023-06-10T04:11:08;19.30;94.70
36800;DHT22;22752;51.960;5.886;2023-06-10T04:13:34;19.40;94.70
36800;DHT22;22752;51.960;5.886;2023-06-10T04:15:59;19.40;94.60
36800;DHT22;22752;51.960;5.886;2023-06-10T04:18:25;19.60;94.60
36800;DHT22;22752;51.960;5.886;2023-06-10T04:20:51;19.70;94.30
36800;DHT22;22752;51.960;5.886;2023-06-10T04:23:17;19.80;94.30
36800;DHT22;22752;51.960;5.886;2023-06-10T04:25:42;19.70;94.30
36800;DHT22;22752;51.960;5.886;2023-06-10T04:28:08;19.80;94.30
36800;DHT22;22752;51.960;5.886;2023-06-10T04:30:34;19.90;94.30
36800;DHT22;22752;51.960;5.886;2023-06-10T04:32:59;20.00;94.20
36800;DHT22;22752;51.960;5.886;2023-06-10T04:35:25;20.20;94.10
36800;DHT22;22752;51.960;5.886;2023-06-10T04:37:53;20.50;93.90
36800;DHT22;22752;51.960;5.886;2023-06-10T04:40:19;20.90;93.40
36800;DHT22;22752;51.960;5.886;2023-06-10T04:42:45;21.30;93.00
36800;DHT22;22752;51.960;5.886;2023-06-10T04:45:11;21.60;92.40
36800;DHT22;22752;51.960;5.886;2023-06-10T04:47:36;21.90;92.10
36800;DHT22;22752;51.960;5.886;2023-06-10T04:50:03;22.20;91.80
36800;DHT22;22752;51.960;5.886;2023-06-10T04:52:29;22.30;91.50
36800;DHT22;22752;51.960;5.886;2023-06-10T04:54:57;22.50;91.30
36800;DHT22;22752;51.960;5.886;2023-06-10T04:57:23;22.70;90.80
36800;DHT22;22752;51.960;5.886;2023-06-10T04:59:49;22.70;91.00
36800;DHT22;22752;51.960;5.886;2023-06-10T05:02:15;22.80;90.90
36800;DHT22;22752;51.960;5.886;2023-06-10T05:04:40;22.90;90.90
36800;DHT22;22752;51.960;5.886;2023-06-10T05:07:06;23.00;90.70
36800;DHT22;22752;51.960;5.886;2023-06-10T05:09:32;23.10;90.60
36800;DHT22;22752;51.960;5.886;2023-06-10T05:11:58;23.20;90.50
36800;DHT22;22752;51.960;5.886;2023-06-10T05:14:24;23.30;90.60
36800;DHT22;22752;51.960;5.886;2023-06-10T05:16:49;23.50;90.60
36800;DHT22;22752;51.960;5.886;2023-06-10T05:19:15;23.90;90.20
36800;DHT22;22752;51.960;5.886;2023-06-10T05:21:45;24.00;89.80
36800;DHT22;22752;51.960;5.886;2023-06-10T05:24:11;24.20;88.90
36800;DHT22;22752;51.960;5.886;2023-06-10T05:26:36;24.20;89.00
36800;DHT22;22752;51.960;5.886;2023-06-10T05:29:04;24.40;88.90
36800;DHT22;22752;51.960;5.886;2023-06-10T05:31:30;24.60;87.90
36800;DHT22;22752;51.960;5.886;2023-06-10T05:33:55;24.70;87.60
36800;DHT22;22752;51.960;5.886;2023-06-10T05:36:21;24.70;87.10
36800;DHT22;22752;51.960;5.886;2023-06-10T05:38:47;24.60;87.60
36800;DHT22;22752;51.960;5.886;2023-06-10T05:41:12;24.60;87.10
36800;DHT22;22752;51.960;5.886;2023-06-10T05:43:38;24.70;87.60
36800;DHT22;22752;51.960;5.886;2023-06-10T05:46:04;24.90;87.50
36800;DHT22;22752;51.960;5.886;2023-06-10T05:48:29;25.00;86.60
36800;DHT22;22752;51.960;5.886;2023-06-10T05:50:55;25.20;86.80
36800;DHT22;22752;51.960;5.886;2023-06-10T05:53:21;25.20;85.40
36800;DHT22;22752;51.960;5.886;2023-06-10T05:55:47;25.30;85.90
36800;DHT22;22752;51.960;5.886;2023-06-10T05:58:13;25.30;86.20
36800;DHT22;22752;51.960;5.886;2023-06-10T06:00:39;25.40;85.50
36800;DHT22;22752;51.960;5.886;2023-06-10T06:03:08;25.50;86.00
36800;DHT22;22752;51.960;5.886;2023-06-10T06:05:34;25.60;85.90
36800;DHT22;22752;51.960;5.886;2023-06-10T06:08:07;25.80;85.60
36800;DHT22;22752;51.960;5.886;2023-06-10T06:10:33;26.00;85.20
36800;DHT22;22752;51.960;5.886;2023-06-10T06:13:00;26.20;85.30
36800;DHT22;22752;51.960;5.886;2023-06-10T06:15:26;26.60;85.40
36800;DHT22;22752;51.960;5.886;2023-06-10T06:17:52;27.00;83.70
36800;DHT22;22752;51.960;5.886;2023-06-10T06:20:21;27.10;83.00
36800;DHT22;22752;51.960;5.886;2023-06-10T06:22:47;27.00;82.20
36800;DHT22;22752;51.960;5.886;2023-06-10T06:25:13;26.80;83.20
36800;DHT22;22752;51.960;5.886;2023-06-10T06:27:39;27.00;83.60
36800;DHT22;22752;51.960;5.886;2023-06-10T06:30:05;27.10;81.80
36800;DHT22;22752;51.960;5.886;2023-06-10T06:32:31;27.10;83.00
36800;DHT22;22752;51.960;5.886;2023-06-10T06:34:57;27.30;82.60
36800;DHT22;22752;51.960;5.886;2023-06-10T06:37:26;27.40;81.80
36800;DHT22;22752;51.960;5.886;2023-06-10T06:39:52;27.40;82.00
36800;DHT22;22752;51.960;5.886;2023-06-10T06:42:19;27.50;82.00
36800;DHT22;22752;51.960;5.886;2023-06-10T06:44:45;27.40;81.80
36800;DHT22;22752;51.960;5.886;2023-06-10T06:47:11;27.30;83.10
36800;DHT22;22752;51.960;5.886;2023-06-10T06:49:37;27.50;82.00
36800;DHT22;22752;51.960;5.886;2023-06-10T06:52:02;27.70;82.40
36800;DHT22;22752;51.960;5.886;2023-06-10T06:54:28;27.90;81.70
36800;DHT22;22752;51.960;5.886;2023-06-10T06:56:54;28.10;81.90
36800;DHT22;22752;51.960;5.886;2023-06-10T06:59:20;28.10;81.20
36800;DHT22;22752;51.960;5.886;2023-06-10T07:01:46;28.00;81.80
36800;DHT22;22752;51.960;5.886;2023-06-10T07:04:14;27.90;80.40
36800;DHT22;22752;51.960;5.886;2023-06-10T07:06:39;27.70;80.40
36800;DHT22;22752;51.960;5.886;2023-06-10T07:09:05;27.50;81.00
36800;DHT22;22752;51.960;5.886;2023-06-10T07:11:31;27.40;81.60
36800;DHT22;22752;51.960;5.886;2023-06-10T07:13:57;27.50;82.20
36800;DHT22;22752;51.960;5.886;2023-06-10T07:16:23;27.70;81.70
36800;DHT22;22752;51.960;5.886;2023-06-10T07:18:48;28.10;81.80
36800;DHT22;22752;51.960;5.886;2023-06-10T07:21:14;28.30;81.20
36800;DHT22;22752;51.960;5.886;2023-06-10T07:23:43;28.30;80.10
36800;DHT22;22752;51.960;5.886;2023-06-10T07:26:09;28.30;80.80
36800;DHT22;22752;51.960;5.886;2023-06-10T07:28:37;28.40;81.20
36800;DHT22;22752;51.960;5.886;2023-06-10T07:31:03;28.60;80.00
36800;DHT22;22752;51.960;5.886;2023-06-10T07:33:29;28.80;78.60
36800;DHT22;22752;51.960;5.886;2023-06-10T07:35:55;28.70;78.80
36800;DHT22;22752;51.960;5.886;2023-06-10T07:38:20;28.70;79.10
36800;DHT22;22752;51.960;5.886;2023-06-10T07:40:46;28.80;79.10
36800;DHT22;22752;51.960;5.886;2023-06-10T07:43:12;28.80;78.60
36800;DHT22;22752;51.960;5.886;2023-06-10T07:45:40;28.70;79.00
36800;DHT22;22752;51.960;5.886;2023-06-10T07:48:05;28.60;78.70
36800;DHT22;22752;51.960;5.886;2023-06-10T07:50:31;28.40;79.30
36800;DHT22;22752;51.960;5.886;2023-06-10T07:52:57;28.40;78.90
36800;DHT22;22752;51.960;5.886;2023-06-10T07:55:22;28.50;79.10
36800;DHT22;22752;51.960;5.886;2023-06-10T07:57:48;28.60;79.00
36800;DHT22;22752;51.960;5.886;2023-06-10T08:00:14;28.80;79.40
36800;DHT22;22752;51.960;5.886;2023-06-10T08:02:39;28.80;78.10
36800;DHT22;22752;51.960;5.886;2023-06-10T08:05:05;28.80;78.40
36800;DHT22;22752;51.960;5.886;2023-06-10T08:07:31;28.90;77.90
36800;DHT22;22752;51.960;5.886;2023-06-10T08:09:57;29.00;77.90
36800;DHT22;22752;51.960;5.886;2023-06-10T08:12:23;29.00;77.60
36800;DHT22;22752;51.960;5.886;2023-06-10T08:14:48;28.90;77.80
36800;DHT22;22752;51.960;5.886;2023-06-10T08:17:14;29.00;78.40
36800;DHT22;22752;51.960;5.886;2023-06-10T08:19:40;28.90;78.10
36800;DHT22;22752;51.960;5.886;2023-06-10T08:22:06;28.90;78.70
36800;DHT22;22752;51.960;5.886;2023-06-10T08:24:32;28.90;79.10
36800;DHT22;22752;51.960;5.886;2023-06-10T08:26:58;29.00;79.30
36800;DHT22;22752;51.960;5.886;2023-06-10T08:29:25;29.10;80.00
36800;DHT22;22752;51.960;5.886;2023-06-10T08:31:51;29.30;78.60
36800;DHT22;22752;51.960;5.886;2023-06-10T08:34:16;29.40;77.70
36800;DHT22;22752;51.960;5.886;2023-06-10T08:36:43;29.20;78.30
36800;DHT22;22752;51.960;5.886;2023-06-10T08:39:09;29.40;79.30
36800;DHT22;22752;51.960;5.886;2023-06-10T08:41:36;29.40;78.20
36800;DHT22;22752;51.960;5.886;2023-06-10T08:44:17;29.20;77.70
36800;DHT22;22752;51.960;5.886;2023-06-10T08:46:48;29.10;77.80
36800;DHT22;22752;51.960;5.886;2023-06-10T08:49:26;29.00;78.90
36800;DHT22;22752;51.960;5.886;2023-06-10T08:51:57;29.20;78.20
36800;DHT22;22752;51.960;5.886;2023-06-10T08:54:28;29.30;79.10
36800;DHT22;22752;51.960;5.886;2023-06-10T08:56:55;29.40;77.80
36800;DHT22;22752;51.960;5.886;2023-06-10T08:59:23;29.50;77.60
36800;DHT22;22752;51.960;5.886;2023-06-10T09:01:51;29.60;79.30
36800;DHT22;22752;51.960;5.886;2023-06-10T09:04:17;29.80;78.00
36800;DHT22;22752;51.960;5.886;2023-06-10T09:06:44;29.60;77.60
36800;DHT22;22752;51.960;5.886;2023-06-10T09:09:12;29.50;77.60
36800;DHT22;22752;51.960;5.886;2023-06-10T09:11:40;28.90;77.90
36800;DHT22;22752;51.960;5.886;2023-06-10T09:14:07;28.60;78.90
36800;DHT22;22752;51.960;5.886;2023-06-10T09:16:33;28.40;79.20
36800;DHT22;22752;51.960;5.886;2023-06-10T09:18:59;28.30;78.20
36800;DHT22;22752;51.960;5.886;2023-06-10T09:21:25;28.10;78.90
36800;DHT22;22752;51.960;5.886;2023-06-10T09:23:51;27.90;80.40
36800;DHT22;22752;51.960;5.886;2023-06-10T09:26:17;27.90;80.30
36800;DHT22;22752;51.960;5.886;2023-06-10T09:28:51;27.90;81.00
36800;DHT22;22752;51.960;5.886;2023-06-10T09:31:22;27.90;79.70
36800;DHT22;22752;51.960;5.886;2023-06-10T09:33:48;27.80;79.60
36800;DHT22;22752;51.960;5.886;2023-06-10T09:36:23;27.80;80.80
36800;DHT22;22752;51.960;5.886;2023-06-10T09:38:50;27.90;81.00
36800;DHT22;22752;51.960;5.886;2023-06-10T09:41:18;27.80;79.60
36800;DHT22;22752;51.960;5.886;2023-06-10T09:43:45;27.70;79.80
36800;DHT22;22752;51.960;5.886;2023-06-10T09:46:18;27.80;80.30
36800;DHT22;22752;51.960;5.886;2023-06-10T09:48:46;28.00;79.50
36800;DHT22;22752;51.960;5.886;2023-06-10T09:51:15;28.00;79.60
36800;DHT22;22752;51.960;5.886;2023-06-10T09:53:51;28.10;79.10
36800;DHT22;22752;51.960;5.886;2023-06-10T09:56:16;28.10;78.60
36800;DHT22;22752;51.960;5.886;2023-06-10T09:58:42;28.10;78.50
36800;DHT22;22752;51.960;5.886;2023-06-10T10:01:12;28.10;78.10
36800;DHT22;22752;51.960;5.886;2023-06-10T10:03:49;28.10;78.10
36800;DHT22;22752;51.960;5.886;2023-06-10T10:06:17;28.10;78.50
36800;DHT22;22752;51.960;5.886;2023-06-10T10:08:46;28.10;77.60
36800;DHT22;22752;51.960;5.886;2023-06-10T10:11:14;28.00;77.80
36800;DHT22;22752;51.960;5.886;2023-06-10T10:13:40;28.00;77.70
36800;DHT22;22752;51.960;5.886;2023-06-10T10:16:11;28.00;78.50
36800;DHT22;22752;51.960;5.886;2023-06-10T10:18:39;28.10;76.90
36800;DHT22;22752;51.960;5.886;2023-06-10T10:21:11;28.10;76.50
36800;DHT22;22752;51.960;5.886;2023-06-10T10:23:53;28.20;76.60
36800;DHT22;22752;51.960;5.886;2023-06-10T10:26:20;28.20;76.50
36800;DHT22;22752;51.960;5.886;2023-06-10T10:28:53;28.10;75.90
36800;DHT22;22752;51.960;5.886;2023-06-10T10:31:23;28.10;75.90
36800;DHT22;22752;51.960;5.886;2023-06-10T10:33:55;28.20;75.60
36800;DHT22;22752;51.960;5.886;2023-06-10T10:36:23;28.20;74.50
36800;DHT22;22752;51.960;5.886;2023-06-10T10:38:49;28.20;76.50
36800;DHT22;22752;51.960;5.886;2023-06-10T10:41:15;28.30;76.40
36800;DHT22;22752;51.960;5.886;2023-06-10T10:43:43;28.40;75.00
36800;DHT22;22752;51.960;5.886;2023-06-10T10:46:15;28.50;75.30
36800;DHT22;22752;51.960;5.886;2023-06-10T10:48:42;28.50;74.20
36800;DHT22;22752;51.960;5.886;2023-06-10T10:51:09;28.50;74.20
36800;DHT22;22752;51.960;5.886;2023-06-10T10:53:37;28.60;75.40
36800;DHT22;22752;51.960;5.886;2023-06-10T10:56:13;28.70;74.00
36800;DHT22;22752;51.960;5.886;2023-06-10T10:58:40;28.70;74.70
36800;DHT22;22752;51.960;5.886;2023-06-10T11:01:15;28.70;74.80
36800;DHT22;22752;51.960;5.886;2023-06-10T11:03:45;28.90;73.30
36800;DHT22;22752;51.960;5.886;2023-06-10T11:06:13;28.80;72.90
36800;DHT22;22752;51.960;5.886;2023-06-10T11:11:26;28.90;73.00
36800;DHT22;22752;51.960;5.886;2023-06-10T11:16:28;28.90;70.90
36800;DHT22;22752;51.960;5.886;2023-06-10T11:18:54;28.80;71.90
36800;DHT22;22752;51.960;5.886;2023-06-10T11:21:21;28.80;71.40
36800;DHT22;22752;51.960;5.886;2023-06-10T11:23:50;28.90;71.50
36800;DHT22;22752;51.960;5.886;2023-06-10T11:31:33;28.90;71.90
36800;DHT22;22752;51.960;5.886;2023-06-10T11:34:03;29.00;69.60
36800;DHT22;22752;51.960;5.886;2023-06-10T11:36:30;29.00;69.70
36800;DHT22;22752;51.960;5.886;2023-06-10T11:39:01;29.00;71.00
36800;DHT22;22752;51.960;5.886;2023-06-10T11:41:28;29.10;71.80
36800;DHT22;22752;51.960;5.886;2023-06-10T11:43:55;29.20;69.50
36800;DHT22;22752;51.960;5.886;2023-06-10T11:46:24;29.30;69.70
36800;DHT22;22752;51.960;5.886;2023-06-10T11:48:59;29.30;70.70
36800;DHT22;22752;51.960;5.886;2023-06-10T11:51:27;29.40;71.70
36800;DHT22;22752;51.960;5.886;2023-06-10T11:53:53;29.50;71.10
36800;DHT22;22752;51.960;5.886;2023-06-10T11:56:27;29.60;70.20
36800;DHT22;22752;51.960;5.886;2023-06-10T11:59:10;29.60;69.00
36800;DHT22;22752;51.960;5.886;2023-06-10T12:01:42;29.60;68.50
36800;DHT22;22752;51.960;5.886;2023-06-10T12:04:16;29.50;70.00
36800;DHT22;22752;51.960;5.886;2023-06-10T12:09:14;29.60;68.00
36800;DHT22;22752;51.960;5.886;2023-06-10T12:11:40;29.50;68.90
36800;DHT22;22752;51.960;5.886;2023-06-10T12:14:07;29.40;68.10
36800;DHT22;22752;51.960;5.886;2023-06-10T12:16:33;29.40;69.30
36800;DHT22;22752;51.960;5.886;2023-06-10T12:19:05;29.50;68.90
36800;DHT22;22752;51.960;5.886;2023-06-10T12:21:33;29.50;68.90
36800;DHT22;22752;51.960;5.886;2023-06-10T12:24:05;29.50;68.60
36800;DHT22;22752;51.960;5.886;2023-06-10T12:26:38;29.50;67.70
36800;DHT22;22752;51.960;5.886;2023-06-10T12:29:19;29.50;68.20
36800;DHT22;22752;51.960;5.886;2023-06-10T12:34:37;29.60;68.00
36800;DHT22;22752;51.960;5.886;2023-06-10T12:37:10;29.50;67.70
36800;DHT22;22752;51.960;5.886;2023-06-10T12:39:39;29.50;67.90
36800;DHT22;22752;51.960;5.886;2023-06-10T12:42:05;29.60;68.40
36800;DHT22;22752;51.960;5.886;2023-06-10T12:44:38;29.60;67.60
36800;DHT22;22752;51.960;5.886;2023-06-10T12:47:11;29.60;68.20
36800;DHT22;22752;51.960;5.886;2023-06-10T12:49:39;29.60;67.80
36800;DHT22;22752;51.960;5.886;2023-06-10T12:52:06;29.70;68.10
36800;DHT22;22752;51.960;5.886;2023-06-10T12:54:32;29.80;68.40
36800;DHT22;22752;51.960;5.886;2023-06-10T12:56:58;29.90;67.20
36800;DHT22;22752;51.960;5.886;2023-06-10T12:59:23;29.80;67.40
36800;DHT22;22752;51.960;5.886;2023-06-10T13:01:53;29.80;67.20
36800;DHT22;22752;51.960;5.886;2023-06-10T13:04:19;29.80;66.70
36800;DHT22;22752;51.960;5.886;2023-06-10T13:06:46;29.70;68.00
36800;DHT22;22752;51.960;5.886;2023-06-10T13:09:13;29.70;66.00
36800;DHT22;22752;51.960;5.886;2023-06-10T13:11:40;29.60;66.00
36800;DHT22;22752;51.960;5.886;2023-06-10T13:14:06;29.60;67.90
36800;DHT22;22752;51.960;5.886;2023-06-10T13:16:32;29.70;67.10
36800;DHT22;22752;51.960;5.886;2023-06-10T13:18:58;29.70;67.60
36800;DHT22;22752;51.960;5.886;2023-06-10T13:21:24;29.70;67.60
36800;DHT22;22752;51.960;5.886;2023-06-10T13:23:50;29.80;66.90
36800;DHT22;22752;51.960;5.886;2023-06-10T13:26:17;29.70;66.60
36800;DHT22;22752;51.960;5.886;2023-06-10T13:28:43;29.70;66.60
36800;DHT22;22752;51.960;5.886;2023-06-10T13:31:09;29.60;66.20
36800;DHT22;22752;51.960;5.886;2023-06-10T13:33:34;29.60;67.40
36800;DHT22;22752;51.960;5.886;2023-06-10T13:36:00;29.60;65.80
36800;DHT22;22752;51.960;5.886;2023-06-10T13:38:26;29.60;67.00
36800;DHT22;22752;51.960;5.886;2023-06-10T13:40:51;29.60;67.30
36800;DHT22;22752;51.960;5.886;2023-06-10T13:43:17;29.80;68.40
36800;DHT22;22752;51.960;5.886;2023-06-10T13:45:43;29.80;66.50
36800;DHT22;22752;51.960;5.886;2023-06-10T13:48:08;29.80;66.10
36800;DHT22;22752;51.960;5.886;2023-06-10T13:50:34;29.80;65.90
36800;DHT22;22752;51.960;5.886;2023-06-10T13:53:00;29.80;68.00
36800;DHT22;22752;51.960;5.886;2023-06-10T13:55:25;29.80;65.70
36800;DHT22;22752;51.960;5.886;2023-06-10T13:57:51;29.80;66.10
36800;DHT22;22752;51.960;5.886;2023-06-10T14:00:17;29.70;66.50
36800;DHT22;22752;51.960;5.886;2023-06-10T14:02:43;29.80;66.50
36800;DHT22;22752;51.960;5.886;2023-06-10T14:05:08;29.70;66.30
36800;DHT22;22752;51.960;5.886;2023-06-10T14:07:34;29.70;66.30
36800;DHT22;22752;51.960;5.886;2023-06-10T14:10:00;29.70;65.60
36800;DHT22;22752;51.960;5.886;2023-06-10T14:12:26;29.70;66.70
36800;DHT22;22752;51.960;5.886;2023-06-10T14:14:51;29.70;66.10
36800;DHT22;22752;51.960;5.886;2023-06-10T14:17:17;29.70;67.20
36800;DHT22;22752;51.960;5.886;2023-06-10T14:19:43;29.80;66.80
36800;DHT22;22752;51.960;5.886;2023-06-10T14:22:08;29.80;66.90
36800;DHT22;22752;51.960;5.886;2023-06-10T14:24:35;29.80;66.20
36800;DHT22;22752;51.960;5.886;2023-06-10T14:27:01;29.70;65.70
36800;DHT22;22752;51.960;5.886;2023-06-10T14:29:27;29.70;66.70
36800;DHT22;22752;51.960;5.886;2023-06-10T14:31:54;29.70;67.20
36800;DHT22;22752;51.960;5.886;2023-06-10T14:34:20;29.70;67.80
36800;DHT22;22752;51.960;5.886;2023-06-10T14:36:46;29.70;66.80
36800;DHT22;22752;51.960;5.886;2023-06-10T14:39:11;29.80;66.10
36800;DHT22;22752;51.960;5.886;2023-06-10T14:41:37;29.70;65.20
36800;DHT22;22752;51.960;5.886;2023-06-10T14:44:03;29.60;65.70
36800;DHT22;22752;51.960;5.886;2023-06-10T14:46:28;29.60;65.80
36800;DHT22;22752;51.960;5.886;2023-06-10T14:48:54;29.60;65.30
36800;DHT22;22752;51.960;5.886;2023-06-10T14:51:20;29.50;66.60
36800;DHT22;22752;51.960;5.886;2023-06-10T14:53:46;29.60;66.70
36800;DHT22;22752;51.960;5.886;2023-06-10T14:56:12;29.60;66.10
36800;DHT22;22752;51.960;5.886;2023-06-10T14:58:38;29.60;66.80
36800;DHT22;22752;51.960;5.886;2023-06-10T15:01:03;29.60;66.40
36800;DHT22;22752;51.960;5.886;2023-06-10T15:03:29;29.60;67.30
36800;DHT22;22752;51.960;5.886;2023-06-10T15:05:55;29.60;66.30
36800;DHT22;22752;51.960;5.886;2023-06-10T15:08:21;29.60;66.00
36800;DHT22;22752;51.960;5.886;2023-06-10T15:10:46;29.50;65.20
36800;DHT22;22752;51.960;5.886;2023-06-10T15:13:13;29.50;66.00
36800;DHT22;22752;51.960;5.886;2023-06-10T15:15:39;29.40;66.20
36800;DHT22;22752;51.960;5.886;2023-06-10T15:18:05;29.40;66.40
36800;DHT22;22752;51.960;5.886;2023-06-10T15:20:30;29.30;65.80
36800;DHT22;22752;51.960;5.886;2023-06-10T15:22:56;29.20;67.30
36800;DHT22;22752;51.960;5.886;2023-06-10T15:25:22;29.30;67.10
36800;DHT22;22752;51.960;5.886;2023-06-10T15:27:47;29.30;66.80
36800;DHT22;22752;51.960;5.886;2023-06-10T15:30:13;29.40;65.90
36800;DHT22;22752;51.960;5.886;2023-06-10T15:32:39;29.40;67.00
36800;DHT22;22752;51.960;5.886;2023-06-10T15:35:05;29.40;67.30
36800;DHT22;22752;51.960;5.886;2023-06-10T15:37:31;29.40;65.80
36800;DHT22;22752;51.960;5.886;2023-06-10T15:39:56;29.40;66.60
36800;DHT22;22752;51.960;5.886;2023-06-10T15:42:22;29.40;67.10
36800;DHT22;22752;51.960;5.886;2023-06-10T15:44:49;29.40;65.10
36800;DHT22;22752;51.960;5.886;2023-06-10T15:47:15;29.30;65.80